sensor_id;sensor_type;location;lat;lon;timestamp;P1;durP1;ratioP1;P2;durP2;ratioP2
14688;SDS011;7432;48.728;9.154;2023-11-19T00:01:56;5.90;;;5.40;;
14688;SDS011;7432;48.728;9.154;2023-11-19T00:04:23;6.23;;;5.43;;
14688;SDS011;7432;48.728;9.154;2023-11-19T00:06:50;5.73;;;5.33;;
14688;SDS011;7432;48.728;9.154;2023-11-19T00:09:17;6.20;;;5.67;;
14688;SDS011;7432;48.728;9.154;2023-11-19T00:11:44;6.40;;;5.90;;
14688;SDS011;7432;48.728;9.154;2023-11-19T00:14:11;5.77;;;5.37;;
14688;SDS011;7432;48.728;9.154;2023-11-19T00:16:37;6.50;;;5.97;;
14688;SDS011;7432;48.728;9.154;2023-11-19T00:19:03;5.57;;;5.17;;
14688;SDS011;7432;48.728;9.154;2023-11-19T00:21:30;6.00;;;5.50;;
14688;SDS011;7432;48.728;9.154;2023-11-19T00:23:59;6.27;;;5.67;;
14688;SDS011;7432;48.728;9.154;2023-11-19T00:26:26;6.57;;;5.67;;
14688;SDS011;7432;48.728;9.154;2023-11-19T00:28:52;6.13;;;5.73;;
14688;SDS011;7432;48.728;9.154;2023-11-19T00:31:18;5.70;;;5.30;;
14688;SDS011;7432;48.728;9.154;2023-11-19T00:33:45;5.93;;;5.43;;
14688;SDS011;7432;48.728;9.154;2023-11-19T00:36:11;6.47;;;5.87;;
14688;SDS011;7432;48.728;9.154;2023-11-19T00:38:38;6.00;;;5.60;;
14688;SDS011;7432;48.728;9.154;2023-11-19T00:41:05;5.63;;;5.20;;
14688;SDS011;7432;48.728;9.154;2023-11-19T00:43:32;5.63;;;5.23;;
14688;SDS011;7432;48.728;9.154;2023-11-19T00:45:58;5.50;;;5.10;;
14688;SDS011;7432;48.728;9.154;2023-11-19T00:48:25;5.57;;;5.17;;
14688;SDS011;7432;48.728;9.154;2023-11-19T00:50:53;5.63;;;5.10;;
14688;SDS011;7432;48.728;9.154;2023-11-19T00:53:19;5.80;;;5.40;;
14688;SDS011;7432;48.728;9.154;2023-11-19T00:55:46;5.40;;;5.00;;
14688;SDS011;7432;48.728;9.154;2023-11-19T00:58:13;5.60;;;5.20;;
14688;SDS011;7432;48.728;9.154;2023-11-19T01:00:40;5.87;;;5.40;;
14688;SDS011;7432;48.728;9.154;2023-11-19T01:03:08;5.20;;;4.80;;
14688;SDS011;7432;48.728;9.154;2023-11-19T01:05:34;4.83;;;4.43;;
14688;SDS011;7432;48.728;9.154;2023-11-19T01:08:00;5.13;;;4.63;;
14688;SDS011;7432;48.728;9.154;2023-11-19T01:10:29;4.67;;;4.37;;
14688;SDS011;7432;48.728;9.154;2023-11-19T01:12:55;5.10;;;4.70;;
14688;SDS011;7432;48.728;9.154;2023-11-19T01:15:23;5.00;;;4.60;;
14688;SDS011;7432;48.728;9.154;2023-11-19T01:17:50;5.07;;;4.57;;
14688;SDS011;7432;48.728;9.154;2023-11-19T01:20:16;7.20;;;4.43;;
14688;SDS011;7432;48.728;9.154;2023-11-19T01:22:42;4.77;;;4.20;;
14688;SDS011;7432;48.728;9.154;2023-11-19T01:25:09;4.30;;;4.00;;
14688;SDS011;7432;48.728;9.154;2023-11-19T01:27:36;4.37;;;3.97;;
14688;SDS011;7432;48.728;9.154;2023-11-19T01:30:02;4.17;;;3.93;;
14688;SDS011;7432;48.728;9.154;2023-11-19T01:32:32;4.37;;;3.97;;
14688;SDS011;7432;48.728;9.154;2023-11-19T01:34:58;4.10;;;3.80;;
14688;SDS011;7432;48.728;9.154;2023-11-19T01:37:26;4.00;;;3.70;;
14688;SDS011;7432;48.728;9.154;2023-11-19T01:39:52;3.67;;;3.33;;
14688;SDS011;7432;48.728;9.154;2023-11-19T01:42:18;4.00;;;3.80;;
14688;SDS011;7432;48.728;9.154;2023-11-19T01:44:54;3.30;;;3.00;;
14688;SDS011;7432;48.728;9.154;2023-11-19T01:47:23;3.60;;;3.40;;
14688;SDS011;7432;48.728;9.154;2023-11-19T01:49:51;3.40;;;3.20;;
14688;SDS011;7432;48.728;9.154;2023-11-19T01:52:18;3.53;;;3.23;;
14688;SDS011;7432;48.728;9.154;2023-11-19T01:54:46;3.40;;;3.20;;
14688;SDS011;7432;48.728;9.154;2023-11-19T01:57:13;3.43;;;3.23;;
14688;SDS011;7432;48.728;9.154;2023-11-19T01:59:40;3.40;;;3.03;;
14688;SDS011;7432;48.728;9.154;2023-11-19T02:02:07;3.40;;;3.20;;
14688;SDS011;7432;48.728;9.154;2023-11-19T02:04:33;3.60;;;3.40;;
14688;SDS011;7432;48.728;9.154;2023-11-19T02:07:01;3.40;;;3.20;;
14688;SDS011;7432;48.728;9.154;2023-11-19T02:09:28;3.20;;;3.10;;
14688;SDS011;7432;48.728;9.154;2023-11-19T02:11:55;3.20;;;3.00;;
14688;SDS011;7432;48.728;9.154;2023-11-19T02:14:21;3.00;;;2.90;;
14688;SDS011;7432;48.728;9.154;2023-11-19T02:16:51;3.20;;;3.00;;
14688;SDS011;7432;48.728;9.154;2023-11-19T02:19:18;3.13;;;2.93;;
14688;SDS011;7432;48.728;9.154;2023-11-19T02:21:45;2.97;;;2.80;;
14688;SDS011;7432;48.728;9.154;2023-11-19T02:24:14;2.70;;;2.60;;
14688;SDS011;7432;48.728;9.154;2023-11-19T02:26:46;2.83;;;2.63;;
14688;SDS011;7432;48.728;9.154;2023-11-19T02:29:24;2.70;;;2.60;;
14688;SDS011;7432;48.728;9.154;2023-11-19T02:31:50;3.00;;;2.90;;
14688;SDS011;7432;48.728;9.154;2023-11-19T02:34:16;2.63;;;2.53;;
14688;SDS011;7432;48.728;9.154;2023-11-19T02:36:43;2.60;;;2.50;;
14688;SDS011;7432;48.728;9.154;2023-11-19T02:39:09;2.60;;;2.50;;
14688;SDS011;7432;48.728;9.154;2023-11-19T02:41:37;2.50;;;2.37;;
14688;SDS011;7432;48.728;9.154;2023-11-19T02:44:05;2.40;;;2.30;;
14688;SDS011;7432;48.728;9.154;2023-11-19T02:46:33;2.80;;;2.70;;
14688;SDS011;7432;48.728;9.154;2023-11-19T02:49:00;2.53;;;2.43;;
14688;SDS011;7432;48.728;9.154;2023-11-19T02:51:26;2.70;;;2.60;;
14688;SDS011;7432;48.728;9.154;2023-11-19T02:53:53;2.40;;;2.30;;
14688;SDS011;7432;48.728;9.154;2023-11-19T02:56:19;2.50;;;2.40;;
14688;SDS011;7432;48.728;9.154;2023-11-19T02:58:50;2.50;;;2.40;;
14688;SDS011;7432;48.728;9.154;2023-11-19T03:01:21;2.17;;;2.07;;
14688;SDS011;7432;48.728;9.154;2023-11-19T03:03:55;2.73;;;2.60;;
14688;SDS011;7432;48.728;9.154;2023-11-19T03:06:23;2.70;;;2.40;;
14688;SDS011;7432;48.728;9.154;2023-11-19T03:08:49;2.50;;;2.40;;
14688;SDS011;7432;48.728;9.154;2023-11-19T03:11:15;2.50;;;2.40;;
14688;SDS011;7432;48.728;9.154;2023-11-19T03:13:42;2.60;;;2.50;;
14688;SDS011;7432;48.728;9.154;2023-11-19T03:16:08;2.47;;;2.37;;
14688;SDS011;7432;48.728;9.154;2023-11-19T03:18:36;2.40;;;2.30;;
14688;SDS011;7432;48.728;9.154;2023-11-19T03:21:05;2.40;;;2.30;;
14688;SDS011;7432;48.728;9.154;2023-11-19T03:23:32;2.30;;;2.20;;
14688;SDS011;7432;48.728;9.154;2023-11-19T03:25:59;2.10;;;2.00;;
14688;SDS011;7432;48.728;9.154;2023-11-19T03:28:28;2.37;;;2.27;;
14688;SDS011;7432;48.728;9.154;2023-11-19T03:30:54;2.33;;;2.23;;
14688;SDS011;7432;48.728;9.154;2023-11-19T03:33:21;2.30;;;2.20;;
14688;SDS011;7432;48.728;9.154;2023-11-19T03:35:47;2.33;;;2.23;;
14688;SDS011;7432;48.728;9.154;2023-11-19T03:38:15;2.53;;;2.43;;
14688;SDS011;7432;48.728;9.154;2023-11-19T03:40:41;2.40;;;2.30;;
14688;SDS011;7432;48.728;9.154;2023-11-19T03:43:08;2.90;;;2.40;;
14688;SDS011;7432;48.728;9.154;2023-11-19T03:45:35;2.63;;;2.53;;
14688;SDS011;7432;48.728;9.154;2023-11-19T03:48:02;2.70;;;2.60;;
14688;SDS011;7432;48.728;9.154;2023-11-19T03:50:29;2.30;;;2.20;;
14688;SDS011;7432;48.728;9.154;2023-11-19T03:52:55;2.27;;;2.17;;
14688;SDS011;7432;48.728;9.154;2023-11-19T03:55:23;2.80;;;2.60;;
14688;SDS011;7432;48.728;9.154;2023-11-19T03:57:49;2.47;;;2.33;;
14688;SDS011;7432;48.728;9.154;2023-11-19T04:00:15;2.67;;;2.57;;
14688;SDS011;7432;48.728;9.154;2023-11-19T04:02:41;2.60;;;2.30;;
14688;SDS011;7432;48.728;9.154;2023-11-19T04:05:08;2.50;;;2.40;;
14688;SDS011;7432;48.728;9.154;2023-11-19T04:07:35;2.83;;;2.60;;
14688;SDS011;7432;48.728;9.154;2023-11-19T04:10:02;3.10;;;2.40;;
14688;SDS011;7432;48.728;9.154;2023-11-19T04:12:30;2.70;;;2.53;;
14688;SDS011;7432;48.728;9.154;2023-11-19T04:14:56;2.60;;;2.40;;
14688;SDS011;7432;48.728;9.154;2023-11-19T04:17:23;2.30;;;2.20;;
14688;SDS011;7432;48.728;9.154;2023-11-19T04:19:49;2.10;;;2.00;;
14688;SDS011;7432;48.728;9.154;2023-11-19T04:22:16;2.37;;;2.27;;
14688;SDS011;7432;48.728;9.154;2023-11-19T04:24:42;2.40;;;2.30;;
14688;SDS011;7432;48.728;9.154;2023-11-19T04:27:10;2.50;;;2.40;;
14688;SDS011;7432;48.728;9.154;2023-11-19T04:29:38;2.53;;;2.43;;
14688;SDS011;7432;48.728;9.154;2023-11-19T04:32:05;2.30;;;2.20;;
14688;SDS011;7432;48.728;9.154;2023-11-19T04:34:32;2.30;;;2.20;;
14688;SDS011;7432;48.728;9.154;2023-11-19T04:36:58;2.20;;;2.10;;
14688;SDS011;7432;48.728;9.154;2023-11-19T04:39:27;2.23;;;2.13;;
14688;SDS011;7432;48.728;9.154;2023-11-19T04:41:53;2.07;;;1.97;;
14688;SDS011;7432;48.728;9.154;2023-11-19T04:44:19;2.20;;;2.10;;
14688;SDS011;7432;48.728;9.154;2023-11-19T04:46:48;2.50;;;2.30;;
14688;SDS011;7432;48.728;9.154;2023-11-19T04:49:14;2.27;;;2.17;;
14688;SDS011;7432;48.728;9.154;2023-11-19T04:51:42;2.33;;;2.23;;
14688;SDS011;7432;48.728;9.154;2023-11-19T04:54:09;2.50;;;2.40;;
14688;SDS011;7432;48.728;9.154;2023-11-19T04:56:36;2.40;;;2.30;;
14688;SDS011;7432;48.728;9.154;2023-11-19T04:59:02;2.37;;;2.17;;
14688;SDS011;7432;48.728;9.154;2023-11-19T05:01:30;2.00;;;1.90;;
14688;SDS011;7432;48.728;9.154;2023-11-19T05:03:58;2.23;;;2.13;;
14688;SDS011;7432;48.728;9.154;2023-11-19T05:06:25;2.13;;;2.03;;
14688;SDS011;7432;48.728;9.154;2023-11-19T05:08:53;2.20;;;2.10;;
14688;SDS011;7432;48.728;9.154;2023-11-19T05:11:20;2.30;;;2.20;;
14688;SDS011;7432;48.728;9.154;2023-11-19T05:13:46;2.23;;;2.13;;
14688;SDS011;7432;48.728;9.154;2023-11-19T05:16:12;2.20;;;2.10;;
14688;SDS011;7432;48.728;9.154;2023-11-19T05:18:40;2.10;;;2.00;;
14688;SDS011;7432;48.728;9.154;2023-11-19T05:21:08;2.20;;;2.10;;
14688;SDS011;7432;48.728;9.154;2023-11-19T05:23:34;2.20;;;2.10;;
14688;SDS011;7432;48.728;9.154;2023-11-19T05:26:01;1.90;;;1.80;;
14688;SDS011;7432;48.728;9.154;2023-11-19T05:28:27;2.20;;;2.10;;
14688;SDS011;7432;48.728;9.154;2023-11-19T05:30:54;2.30;;;2.13;;
14688;SDS011;7432;48.728;9.154;2023-11-19T05:33:20;2.30;;;2.20;;
14688;SDS011;7432;48.728;9.154;2023-11-19T05:35:47;2.43;;;2.23;;
14688;SDS011;7432;48.728;9.154;2023-11-19T05:38:14;2.10;;;2.00;;
14688;SDS011;7432;48.728;9.154;2023-11-19T05:40:41;2.30;;;2.20;;
14688;SDS011;7432;48.728;9.154;2023-11-19T05:43:08;2.40;;;2.30;;
14688;SDS011;7432;48.728;9.154;2023-11-19T05:45:34;2.37;;;2.27;;
14688;SDS011;7432;48.728;9.154;2023-11-19T05:48:00;2.53;;;2.43;;
14688;SDS011;7432;48.728;9.154;2023-11-19T05:50:29;2.20;;;2.10;;
14688;SDS011;7432;48.728;9.154;2023-11-19T05:52:55;2.27;;;2.10;;
14688;SDS011;7432;48.728;9.154;2023-11-19T05:55:23;2.30;;;2.20;;
14688;SDS011;7432;48.728;9.154;2023-11-19T05:57:49;2.10;;;2.00;;
14688;SDS011;7432;48.728;9.154;2023-11-19T06:00:17;2.30;;;2.20;;
14688;SDS011;7432;48.728;9.154;2023-11-19T06:02:43;2.07;;;1.97;;
14688;SDS011;7432;48.728;9.154;2023-11-19T06:05:10;2.10;;;2.00;;
14688;SDS011;7432;48.728;9.154;2023-11-19T06:07:36;2.20;;;2.10;;
14688;SDS011;7432;48.728;9.154;2023-11-19T06:10:04;3.27;;;2.03;;
14688;SDS011;7432;48.728;9.154;2023-11-19T06:12:33;2.10;;;2.00;;
14688;SDS011;7432;48.728;9.154;2023-11-19T06:15:02;2.30;;;2.20;;
14688;SDS011;7432;48.728;9.154;2023-11-19T06:17:30;2.90;;;2.10;;
14688;SDS011;7432;48.728;9.154;2023-11-19T06:19:56;2.10;;;2.00;;
14688;SDS011;7432;48.728;9.154;2023-11-19T06:22:22;2.30;;;2.20;;
14688;SDS011;7432;48.728;9.154;2023-11-19T06:24:49;2.43;;;2.30;;
14688;SDS011;7432;48.728;9.154;2023-11-19T06:27:15;2.27;;;2.17;;
14688;SDS011;7432;48.728;9.154;2023-11-19T06:29:43;2.40;;;2.30;;
14688;SDS011;7432;48.728;9.154;2023-11-19T06:32:09;2.50;;;2.30;;
14688;SDS011;7432;48.728;9.154;2023-11-19T06:34:36;3.10;;;2.10;;
14688;SDS011;7432;48.728;9.154;2023-11-19T06:37:02;2.40;;;2.20;;
14688;SDS011;7432;48.728;9.154;2023-11-19T06:39:29;2.33;;;2.23;;
14688;SDS011;7432;48.728;9.154;2023-11-19T06:41:55;2.50;;;2.40;;
14688;SDS011;7432;48.728;9.154;2023-11-19T06:44:22;2.33;;;2.23;;
14688;SDS011;7432;48.728;9.154;2023-11-19T06:46:51;2.47;;;2.37;;
14688;SDS011;7432;48.728;9.154;2023-11-19T06:49:18;2.53;;;2.43;;
14688;SDS011;7432;48.728;9.154;2023-11-19T06:51:45;2.30;;;2.20;;
14688;SDS011;7432;48.728;9.154;2023-11-19T06:54:11;2.50;;;2.40;;
14688;SDS011;7432;48.728;9.154;2023-11-19T06:56:37;2.40;;;2.20;;
14688;SDS011;7432;48.728;9.154;2023-11-19T06:59:04;2.60;;;2.50;;
14688;SDS011;7432;48.728;9.154;2023-11-19T07:01:34;3.00;;;2.47;;
14688;SDS011;7432;48.728;9.154;2023-11-19T07:04:02;2.50;;;2.40;;
14688;SDS011;7432;48.728;9.154;2023-11-19T07:06:33;2.47;;;2.37;;
14688;SDS011;7432;48.728;9.154;2023-11-19T07:08:59;2.70;;;2.50;;
14688;SDS011;7432;48.728;9.154;2023-11-19T07:11:31;3.07;;;2.50;;
14688;SDS011;7432;48.728;9.154;2023-11-19T07:13:57;2.57;;;2.47;;
14688;SDS011;7432;48.728;9.154;2023-11-19T07:16:25;2.60;;;2.50;;
14688;SDS011;7432;48.728;9.154;2023-11-19T07:18:52;6.00;;;3.20;;
14688;SDS011;7432;48.728;9.154;2023-11-19T07:21:19;3.13;;;2.93;;
14688;SDS011;7432;48.728;9.154;2023-11-19T07:23:46;3.00;;;2.70;;
14688;SDS011;7432;48.728;9.154;2023-11-19T07:26:12;2.50;;;2.40;;
14688;SDS011;7432;48.728;9.154;2023-11-19T07:28:39;2.50;;;2.40;;
14688;SDS011;7432;48.728;9.154;2023-11-19T07:31:05;2.90;;;2.80;;
14688;SDS011;7432;48.728;9.154;2023-11-19T07:33:32;4.20;;;2.53;;
14688;SDS011;7432;48.728;9.154;2023-11-19T07:35:59;2.80;;;2.70;;
14688;SDS011;7432;48.728;9.154;2023-11-19T07:38:26;2.67;;;2.57;;
14688;SDS011;7432;48.728;9.154;2023-11-19T07:40:53;2.63;;;2.53;;
14688;SDS011;7432;48.728;9.154;2023-11-19T07:43:19;2.87;;;2.70;;
14688;SDS011;7432;48.728;9.154;2023-11-19T07:45:46;2.60;;;2.50;;
14688;SDS011;7432;48.728;9.154;2023-11-19T07:48:12;3.10;;;2.80;;
14688;SDS011;7432;48.728;9.154;2023-11-19T07:50:38;2.73;;;2.63;;
14688;SDS011;7432;48.728;9.154;2023-11-19T07:53:06;2.93;;;2.80;;
14688;SDS011;7432;48.728;9.154;2023-11-19T07:55:33;2.60;;;2.50;;
14688;SDS011;7432;48.728;9.154;2023-11-19T07:58:00;2.80;;;2.60;;
14688;SDS011;7432;48.728;9.154;2023-11-19T08:00:26;2.70;;;2.60;;
14688;SDS011;7432;48.728;9.154;2023-11-19T08:02:53;3.00;;;2.80;;
14688;SDS011;7432;48.728;9.154;2023-11-19T08:05:19;2.60;;;2.40;;
14688;SDS011;7432;48.728;9.154;2023-11-19T08:07:45;3.10;;;2.90;;
14688;SDS011;7432;48.728;9.154;2023-11-19T08:10:12;2.90;;;2.70;;
14688;SDS011;7432;48.728;9.154;2023-11-19T08:12:39;3.10;;;2.90;;
14688;SDS011;7432;48.728;9.154;2023-11-19T08:15:06;3.13;;;2.80;;
14688;SDS011;7432;48.728;9.154;2023-11-19T08:17:33;2.70;;;2.50;;
14688;SDS011;7432;48.728;9.154;2023-11-19T08:19:59;2.83;;;2.73;;
14688;SDS011;7432;48.728;9.154;2023-11-19T08:22:26;2.80;;;2.60;;
14688;SDS011;7432;48.728;9.154;2023-11-19T08:24:52;2.77;;;2.57;;
14688;SDS011;7432;48.728;9.154;2023-11-19T08:27:18;2.60;;;2.50;;
14688;SDS011;7432;48.728;9.154;2023-11-19T08:29:52;4.53;;;2.70;;
14688;SDS011;7432;48.728;9.154;2023-11-19T08:32:20;3.00;;;2.80;;
14688;SDS011;7432;48.728;9.154;2023-11-19T08:34:47;3.80;;;3.50;;
14688;SDS011;7432;48.728;9.154;2023-11-19T08:37:13;3.10;;;2.90;;
14688;SDS011;7432;48.728;9.154;2023-11-19T08:39:40;3.50;;;2.70;;
14688;SDS011;7432;48.728;9.154;2023-11-19T08:42:07;3.53;;;3.33;;
14688;SDS011;7432;48.728;9.154;2023-11-19T08:44:33;3.30;;;3.10;;
14688;SDS011;7432;48.728;9.154;2023-11-19T08:47:01;4.10;;;3.80;;
14688;SDS011;7432;48.728;9.154;2023-11-19T08:49:27;3.40;;;3.20;;
14688;SDS011;7432;48.728;9.154;2023-11-19T08:51:54;3.67;;;3.27;;
14688;SDS011;7432;48.728;9.154;2023-11-19T08:54:20;3.40;;;3.20;;
14688;SDS011;7432;48.728;9.154;2023-11-19T08:56:48;3.80;;;3.50;;
14688;SDS011;7432;48.728;9.154;2023-11-19T08:59:15;3.30;;;3.10;;
14688;SDS011;7432;48.728;9.154;2023-11-19T09:01:42;3.33;;;3.20;;
14688;SDS011;7432;48.728;9.154;2023-11-19T09:04:10;3.40;;;3.20;;
14688;SDS011;7432;48.728;9.154;2023-11-19T09:06:36;3.50;;;3.30;;
14688;SDS011;7432;48.728;9.154;2023-11-19T09:09:03;3.13;;;2.93;;
14688;SDS011;7432;48.728;9.154;2023-11-19T09:11:30;3.37;;;3.20;;
14688;SDS011;7432;48.728;9.154;2023-11-19T09:13:57;5.00;;;4.60;;
14688;SDS011;7432;48.728;9.154;2023-11-19T09:16:23;4.70;;;4.40;;
14688;SDS011;7432;48.728;9.154;2023-11-19T09:18:50;3.87;;;3.60;;
14688;SDS011;7432;48.728;9.154;2023-11-19T09:21:18;3.90;;;3.70;;
14688;SDS011;7432;48.728;9.154;2023-11-19T09:23:44;4.33;;;4.00;;
14688;SDS011;7432;48.728;9.154;2023-11-19T09:26:13;4.33;;;4.03;;
14688;SDS011;7432;48.728;9.154;2023-11-19T09:28:39;4.37;;;4.07;;
14688;SDS011;7432;48.728;9.154;2023-11-19T09:31:12;4.07;;;3.87;;
14688;SDS011;7432;48.728;9.154;2023-11-19T09:33:39;4.30;;;4.07;;
14688;SDS011;7432;48.728;9.154;2023-11-19T09:36:06;4.10;;;3.90;;
14688;SDS011;7432;48.728;9.154;2023-11-19T09:38:34;4.20;;;4.00;;
14688;SDS011;7432;48.728;9.154;2023-11-19T09:41:03;4.20;;;3.80;;
14688;SDS011;7432;48.728;9.154;2023-11-19T09:43:33;4.20;;;4.00;;
14688;SDS011;7432;48.728;9.154;2023-11-19T09:46:00;4.70;;;4.30;;
14688;SDS011;7432;48.728;9.154;2023-11-19T09:48:32;4.53;;;4.20;;
14688;SDS011;7432;48.728;9.154;2023-11-19T09:50:59;5.03;;;4.73;;
14688;SDS011;7432;48.728;9.154;2023-11-19T09:53:27;4.60;;;4.40;;
14688;SDS011;7432;48.728;9.154;2023-11-19T09:55:54;4.50;;;4.30;;
14688;SDS011;7432;48.728;9.154;2023-11-19T09:58:22;4.57;;;4.30;;
14688;SDS011;7432;48.728;9.154;2023-11-19T10:00:49;4.30;;;4.10;;
14688;SDS011;7432;48.728;9.154;2023-11-19T10:03:17;4.20;;;4.00;;
14688;SDS011;7432;48.728;9.154;2023-11-19T10:05:43;4.17;;;3.97;;
14688;SDS011;7432;48.728;9.154;2023-11-19T10:08:10;4.47;;;4.27;;
14688;SDS011;7432;48.728;9.154;2023-11-19T10:10:36;4.10;;;3.90;;
14688;SDS011;7432;48.728;9.154;2023-11-19T10:13:04;4.20;;;4.00;;
14688;SDS011;7432;48.728;9.154;2023-11-19T10:15:33;3.97;;;3.77;;
14688;SDS011;7432;48.728;9.154;2023-11-19T10:18:02;4.40;;;4.20;;
14688;SDS011;7432;48.728;9.154;2023-11-19T10:20:29;4.30;;;4.10;;
14688;SDS011;7432;48.728;9.154;2023-11-19T10:23:01;4.50;;;4.30;;
14688;SDS011;7432;48.728;9.154;2023-11-19T10:25:28;4.87;;;4.67;;
14688;SDS011;7432;48.728;9.154;2023-11-19T10:27:55;4.50;;;4.30;;
14688;SDS011;7432;48.728;9.154;2023-11-19T10:30:23;4.70;;;4.50;;
14688;SDS011;7432;48.728;9.154;2023-11-19T10:33:05;4.70;;;4.50;;
14688;SDS011;7432;48.728;9.154;2023-11-19T10:35:32;5.03;;;4.70;;
14688;SDS011;7432;48.728;9.154;2023-11-19T10:38:00;4.93;;;4.60;;
14688;SDS011;7432;48.728;9.154;2023-11-19T10:40:39;5.50;;;5.00;;
14688;SDS011;7432;48.728;9.154;2023-11-19T10:43:06;5.40;;;5.10;;
14688;SDS011;7432;48.728;9.154;2023-11-19T10:45:35;6.10;;;5.70;;
14688;SDS011;7432;48.728;9.154;2023-11-19T10:48:02;5.33;;;5.03;;
14688;SDS011;7432;48.728;9.154;2023-11-19T10:50:31;5.27;;;5.07;;
14688;SDS011;7432;48.728;9.154;2023-11-19T10:52:58;5.57;;;5.17;;
14688;SDS011;7432;48.728;9.154;2023-11-19T10:55:26;6.77;;;5.27;;
14688;SDS011;7432;48.728;9.154;2023-11-19T10:57:54;5.37;;;5.07;;
14688;SDS011;7432;48.728;9.154;2023-11-19T11:00:24;5.40;;;5.10;;
14688;SDS011;7432;48.728;9.154;2023-11-19T11:02:54;5.50;;;5.20;;
14688;SDS011;7432;48.728;9.154;2023-11-19T11:05:22;5.20;;;4.90;;
14688;SDS011;7432;48.728;9.154;2023-11-19T11:07:51;5.20;;;4.90;;
14688;SDS011;7432;48.728;9.154;2023-11-19T11:10:21;5.53;;;5.23;;
14688;SDS011;7432;48.728;9.154;2023-11-19T11:12:51;5.33;;;5.03;;
14688;SDS011;7432;48.728;9.154;2023-11-19T11:15:22;5.20;;;4.90;;
14688;SDS011;7432;48.728;9.154;2023-11-19T11:17:54;5.67;;;5.27;;
14688;SDS011;7432;48.728;9.154;2023-11-19T11:20:25;5.90;;;5.50;;
14688;SDS011;7432;48.728;9.154;2023-11-19T11:22:54;5.43;;;5.13;;
14688;SDS011;7432;48.728;9.154;2023-11-19T11:25:39;6.20;;;5.60;;
14688;SDS011;7432;48.728;9.154;2023-11-19T11:28:26;5.87;;;5.57;;
14688;SDS011;7432;48.728;9.154;2023-11-19T11:31:04;6.10;;;5.70;;
14688;SDS011;7432;48.728;9.154;2023-11-19T11:33:45;7.10;;;6.50;;
14688;SDS011;7432;48.728;9.154;2023-11-19T11:36:39;6.97;;;6.30;;
14688;SDS011;7432;48.728;9.154;2023-11-19T11:39:15;6.80;;;6.20;;
14688;SDS011;7432;48.728;9.154;2023-11-19T11:41:43;6.30;;;5.90;;
14688;SDS011;7432;48.728;9.154;2023-11-19T11:44:10;6.50;;;6.10;;
14688;SDS011;7432;48.728;9.154;2023-11-19T11:46:53;6.70;;;6.20;;
14688;SDS011;7432;48.728;9.154;2023-11-19T11:49:27;7.07;;;6.60;;
14688;SDS011;7432;48.728;9.154;2023-11-19T11:52:02;6.77;;;6.37;;
14688;SDS011;7432;48.728;9.154;2023-11-19T11:54:29;6.47;;;6.07;;
14688;SDS011;7432;48.728;9.154;2023-11-19T11:57:04;6.90;;;6.50;;
14688;SDS011;7432;48.728;9.154;2023-11-19T11:59:37;6.73;;;6.33;;
14688;SDS011;7432;48.728;9.154;2023-11-19T12:02:09;6.50;;;6.10;;
14688;SDS011;7432;48.728;9.154;2023-11-19T12:04:38;6.47;;;5.97;;
14688;SDS011;7432;48.728;9.154;2023-11-19T12:07:06;6.30;;;5.90;;
14688;SDS011;7432;48.728;9.154;2023-11-19T12:09:32;6.60;;;6.10;;
14688;SDS011;7432;48.728;9.154;2023-11-19T12:12:17;6.60;;;6.30;;
14688;SDS011;7432;48.728;9.154;2023-11-19T12:15:03;6.50;;;6.10;;
14688;SDS011;7432;48.728;9.154;2023-11-19T12:17:42;6.10;;;5.80;;
14688;SDS011;7432;48.728;9.154;2023-11-19T12:20:15;6.10;;;5.70;;
14688;SDS011;7432;48.728;9.154;2023-11-19T12:22:43;6.10;;;5.80;;
14688;SDS011;7432;48.728;9.154;2023-11-19T12:25:11;6.00;;;5.70;;
14688;SDS011;7432;48.728;9.154;2023-11-19T12:27:38;6.40;;;6.10;;
14688;SDS011;7432;48.728;9.154;2023-11-19T12:30:06;6.43;;;6.03;;
14688;SDS011;7432;48.728;9.154;2023-11-19T12:32:39;6.10;;;5.80;;
14688;SDS011;7432;48.728;9.154;2023-11-19T12:35:07;6.37;;;5.97;;
14688;SDS011;7432;48.728;9.154;2023-11-19T12:37:41;6.50;;;6.10;;
14688;SDS011;7432;48.728;9.154;2023-11-19T12:40:12;6.77;;;6.27;;
14688;SDS011;7432;48.728;9.154;2023-11-19T12:42:40;6.90;;;6.07;;
14688;SDS011;7432;48.728;9.154;2023-11-19T12:45:07;6.43;;;6.00;;
14688;SDS011;7432;48.728;9.154;2023-11-19T12:47:35;6.43;;;6.00;;
14688;SDS011;7432;48.728;9.154;2023-11-19T12:50:02;6.80;;;6.30;;
14688;SDS011;7432;48.728;9.154;2023-11-19T12:52:29;6.70;;;6.17;;
14688;SDS011;7432;48.728;9.154;2023-11-19T12:54:56;6.33;;;5.93;;
14688;SDS011;7432;48.728;9.154;2023-11-19T12:57:35;6.77;;;6.37;;
14688;SDS011;7432;48.728;9.154;2023-11-19T13:00:02;6.87;;;6.37;;
14688;SDS011;7432;48.728;9.154;2023-11-19T13:02:44;7.30;;;6.80;;
14688;SDS011;7432;48.728;9.154;2023-11-19T13:05:21;7.40;;;6.90;;
14688;SDS011;7432;48.728;9.154;2023-11-19T13:07:48;6.97;;;6.47;;
14688;SDS011;7432;48.728;9.154;2023-11-19T13:10:16;7.13;;;6.73;;
14688;SDS011;7432;48.728;9.154;2023-11-19T13:12:42;7.00;;;6.60;;
14688;SDS011;7432;48.728;9.154;2023-11-19T13:15:22;7.07;;;6.67;;
14688;SDS011;7432;48.728;9.154;2023-11-19T13:17:49;7.00;;;6.63;;
14688;SDS011;7432;48.728;9.154;2023-11-19T13:20:15;7.93;;;7.33;;
14688;SDS011;7432;48.728;9.154;2023-11-19T13:22:53;7.87;;;7.30;;
14688;SDS011;7432;48.728;9.154;2023-11-19T13:25:21;7.20;;;6.80;;
14688;SDS011;7432;48.728;9.154;2023-11-19T13:27:47;8.60;;;7.90;;
14688;SDS011;7432;48.728;9.154;2023-11-19T13:30:14;9.00;;;7.67;;
14688;SDS011;7432;48.728;9.154;2023-11-19T13:32:42;8.97;;;8.23;;
14688;SDS011;7432;48.728;9.154;2023-11-19T13:35:08;7.60;;;6.80;;
14688;SDS011;7432;48.728;9.154;2023-11-19T13:37:35;7.93;;;7.33;;
14688;SDS011;7432;48.728;9.154;2023-11-19T13:40:01;7.70;;;7.20;;
14688;SDS011;7432;48.728;9.154;2023-11-19T13:42:29;8.50;;;7.80;;
14688;SDS011;7432;48.728;9.154;2023-11-19T13:44:56;7.50;;;7.10;;
14688;SDS011;7432;48.728;9.154;2023-11-19T13:47:22;8.07;;;7.40;;
14688;SDS011;7432;48.728;9.154;2023-11-19T13:49:48;7.40;;;7.00;;
14688;SDS011;7432;48.728;9.154;2023-11-19T13:52:15;10.13;;;9.37;;
14688;SDS011;7432;48.728;9.154;2023-11-19T13:54:42;7.90;;;7.40;;
14688;SDS011;7432;48.728;9.154;2023-11-19T13:57:08;7.33;;;6.83;;
14688;SDS011;7432;48.728;9.154;2023-11-19T13:59:40;7.50;;;6.93;;
14688;SDS011;7432;48.728;9.154;2023-11-19T14:02:06;7.53;;;7.07;;
14688;SDS011;7432;48.728;9.154;2023-11-19T14:04:33;7.63;;;7.13;;
14688;SDS011;7432;48.728;9.154;2023-11-19T14:07:00;7.80;;;7.30;;
14688;SDS011;7432;48.728;9.154;2023-11-19T14:09:26;7.87;;;7.20;;
14688;SDS011;7432;48.728;9.154;2023-11-19T14:11:54;7.60;;;7.20;;
14688;SDS011;7432;48.728;9.154;2023-11-19T14:14:20;7.63;;;7.10;;
14688;SDS011;7432;48.728;9.154;2023-11-19T14:16:48;7.80;;;7.40;;
14688;SDS011;7432;48.728;9.154;2023-11-19T14:19:14;7.60;;;7.20;;
14688;SDS011;7432;48.728;9.154;2023-11-19T14:21:41;7.60;;;7.10;;
14688;SDS011;7432;48.728;9.154;2023-11-19T14:24:07;7.70;;;7.20;;
14688;SDS011;7432;48.728;9.154;2023-11-19T14:26:34;7.40;;;7.00;;
14688;SDS011;7432;48.728;9.154;2023-11-19T14:29:00;8.43;;;7.70;;
14688;SDS011;7432;48.728;9.154;2023-11-19T14:31:27;10.80;;;9.70;;
14688;SDS011;7432;48.728;9.154;2023-11-19T14:33:55;8.03;;;7.47;;
14688;SDS011;7432;48.728;9.154;2023-11-19T14:36:21;8.20;;;7.70;;
14688;SDS011;7432;48.728;9.154;2023-11-19T14:38:48;7.93;;;7.43;;
14688;SDS011;7432;48.728;9.154;2023-11-19T14:41:15;7.80;;;7.30;;
14688;SDS011;7432;48.728;9.154;2023-11-19T14:43:42;8.40;;;7.90;;
14688;SDS011;7432;48.728;9.154;2023-11-19T14:46:08;7.80;;;7.40;;
14688;SDS011;7432;48.728;9.154;2023-11-19T14:48:34;8.13;;;7.57;;
14688;SDS011;7432;48.728;9.154;2023-11-19T14:51:02;8.57;;;7.97;;
14688;SDS011;7432;48.728;9.154;2023-11-19T14:53:29;8.13;;;7.63;;
14688;SDS011;7432;48.728;9.154;2023-11-19T14:55:55;8.40;;;7.90;;
14688;SDS011;7432;48.728;9.154;2023-11-19T14:58:22;8.23;;;7.73;;
14688;SDS011;7432;48.728;9.154;2023-11-19T15:00:50;11.00;;;10.10;;
14688;SDS011;7432;48.728;9.154;2023-11-19T15:03:17;8.33;;;7.83;;
14688;SDS011;7432;48.728;9.154;2023-11-19T15:05:44;8.33;;;7.73;;